Time;durP1;ratioP1;P1;durP2;ratioP2;P2;SDS_P1;SDS_P2;PMS_P1;PMS_P2;Temp;Humidity;BMP_temperature;BMP_pressure;BME280_temperature;BME280_humidity;BME280_pressure;Samples;Min_cycle;Max_cycle;Signal;HPM_P1;HPM_P2
2022/08/05 00:00:17;;;;;;;6.75;3.50;;;19.30;99.90;;;;;;4939914;28;20517;-57
2022/08/05 00:02:44;;;;;;;7.90;3.13;;;19.40;99.90;;;;;;4942943;29;20094;-57
2022/08/05 00:05:09;;;;;;;6.95;3.47;;;19.40;99.90;;;;;;4943825;29;20062;-57
2022/08/05 00:07:35;;;;;;;9.30;3.67;;;19.40;99.90;;;;;;4953810;28;20561;-57
2022/08/05 00:10:01;;;;;;;8.93;3.63;;;19.40;99.90;;;;;;4942668;29;20142;-59
2022/08/05 00:12:26;;;;;;;8.82;3.58;;;19.40;99.90;;;;;;4941955;29;20387;-59
2022/08/05 00:14:52;;;;;;;6.40;3.80;;;19.40;99.90;;;;;;4943503;29;20055;-58
2022/08/05 00:17:18;;;;;;;7.22;4.10;;;19.40;99.90;;;;;;4942549;29;20035;-57
2022/08/05 00:19:43;;;;;;;9.00;4.32;;;19.40;99.90;;;;;;4943685;29;20046;-58
2022/08/05 00:22:09;;;;;;;8.50;3.60;;;19.50;99.90;;;;;;4942634;29;20499;-58
2022/08/05 00:24:35;;;;;;;6.68;3.70;;;19.40;99.90;;;;;;4942113;29;20118;-60
2022/08/05 00:27:01;;;;;;;6.10;3.78;;;19.40;99.90;;;;;;4943090;29;20101;-58
2022/08/05 00:29:27;;;;;;;6.85;3.45;;;19.40;99.90;;;;;;4942845;29;20058;-58
2022/08/05 00:31:54;;;;;;;6.22;2.83;;;19.40;99.90;;;;;;4942557;29;20499;-58
2022/08/05 00:34:19;;;;;;;6.50;3.08;;;19.40;99.90;;;;;;4942791;29;20050;-58
2022/08/05 00:36:45;;;;;;;6.40;2.92;;;19.40;99.90;;;;;;4943314;29;20043;-57
2022/08/05 00:39:11;;;;;;;7.38;2.90;;;19.30;99.90;;;;;;4942125;29;20049;-58
2022/08/05 00:41:37;;;;;;;6.45;2.35;;;19.30;99.90;;;;;;4925052;29;20055;-58
2022/08/05 00:44:03;;;;;;;7.68;3.00;;;19.10;99.90;;;;;;4942763;29;20105;-57
2022/08/05 00:46:28;;;;;;;7.97;3.00;;;19.30;99.90;;;;;;4942249;29;20106;-59
2022/08/05 00:48:54;;;;;;;8.43;3.10;;;19.30;99.90;;;;;;4942433;29;20510;-58
2022/08/05 00:51:21;;;;;;;8.48;3.28;;;19.20;99.90;;;;;;4942091;29;20039;-57
2022/08/05 00:53:47;;;;;;;6.60;2.80;;;19.30;99.90;;;;;;4942795;29;20446;-58
2022/08/05 00:56:14;;;;;;;6.25;2.80;;;19.20;99.90;;;;;;4940611;29;20067;-58
2022/08/05 00:58:40;;;;;;;6.25;2.53;;;19.20;99.90;;;;;;4941451;29;20122;-58
2022/08/05 01:01:06;;;;;;;7.38;2.90;;;19.20;99.90;;;;;;4942465;29;20167;-58
2022/08/05 01:03:32;;;;;;;7.47;2.88;;;19.10;99.90;;;;;;4986694;22;20159;-57
2022/08/05 01:05:57;;;;;;;6.65;2.58;;;19.00;99.90;;;;;;4989546;28;20042;-57
2022/08/05 01:08:23;;;;;;;5.88;2.80;;;19.00;99.90;;;;;;4988724;28;20054;-58
2022/08/05 01:11:03;;;;;;;5.95;2.42;;;19.10;99.90;;;;;;4979003;28;20046;-58
2022/08/05 01:13:58;;;;;;;6.20;2.42;;;19.10;99.90;;;;;;4980191;28;20456;-58
2022/08/05 01:16:29;;;;;;;;;;;19.10;99.90;;;;;;4981271;28;20051;-58
2022/08/05 01:19:01;;;;;;;6.75;2.40;;;19.20;99.90;;;;;;4981334;28;20005;-58
2022/08/05 01:21:59;;;;;;;6.43;2.20;;;19.20;99.90;;;;;;4979886;28;20227;-58
2022/08/05 01:24:58;;;;;;;5.47;2.45;;;19.10;99.90;;;;;;4979945;28;20046;-57
2022/08/05 01:27:27;;;;;;;6.38;2.13;;;19.10;99.90;;;;;;4980272;28;20511;-58
2022/08/05 01:29:58;;;;;;;5.75;2.30;;;19.10;99.90;;;;;;4980778;28;20097;-58
2022/08/05 01:32:26;;;;;;;6.10;2.50;;;19.10;99.90;;;;;;4980377;28;20764;-58
2022/08/05 01:35:13;;;;;;;7.13;2.30;;;19.10;99.90;;;;;;4980822;28;20050;-57
2022/08/05 01:37:50;;;;;;;7.43;2.58;;;19.20;99.90;;;;;;4979632;28;20060;-58
2022/08/05 01:40:18;;;;;;;7.85;2.72;;;19.20;99.90;;;;;;4979545;28;20054;-57
2022/08/05 01:42:45;;;;;;;6.07;2.53;;;19.20;99.90;;;;;;4980913;28;20122;-57
2022/08/05 01:45:14;;;;;;;8.73;2.58;;;19.20;99.90;;;;;;4979506;28;20145;-57
2022/08/05 01:47:43;;;;;;;5.65;2.40;;;19.20;99.90;;;;;;4980416;28;20054;-58
2022/08/05 01:50:12;;;;;;;6.75;2.13;;;19.20;99.90;;;;;;4980282;28;20061;-57
2022/08/05 01:52:41;;;;;;;6.82;2.35;;;19.10;99.90;;;;;;4979386;28;20046;-58
2022/08/05 01:55:10;;;;;;;5.32;2.47;;;19.10;99.90;;;;;;4979528;28;20045;-56
2022/08/05 01:57:40;;;;;;;6.78;2.47;;;19.10;99.90;;;;;;4979738;28;20066;-57
2022/08/05 02:00:10;;;;;;;6.75;2.30;;;19.20;99.90;;;;;;4980008;28;20149;-58
2022/08/05 02:02:40;;;;;;;5.95;2.20;;;19.10;99.90;;;;;;4979791;28;20074;-58
2022/08/05 02:05:09;;;;;;;4.88;1.90;;;19.20;99.90;;;;;;4978754;28;20058;-58
2022/08/05 02:07:36;;;;;;;5.95;2.60;;;19.10;99.90;;;;;;4991039;28;20037;-58
2022/08/05 02:10:03;;;;;;;6.00;2.15;;;19.10;99.90;;;;;;4978653;28;20088;-57
2022/08/05 02:12:53;;;;;;;4.75;1.85;;;19.10;99.90;;;;;;4979668;28;20196;-58
2022/08/05 02:15:28;;;;;;;5.40;2.13;;;19.20;99.90;;;;;;4978584;28;20050;-57
2022/08/05 02:18:15;;;;;;;4.20;2.20;;;19.10;99.90;;;;;;4979762;28;20065;-57
2022/08/05 02:20:55;;;;;;;6.50;2.15;;;19.10;99.90;;;;;;4979584;28;20046;-55
2022/08/05 02:23:24;;;;;;;5.60;2.33;;;19.10;99.90;;;;;;4978869;28;20038;-58
2022/08/05 02:25:52;;;;;;;6.97;2.28;;;19.00;99.90;;;;;;4993594;28;20045;-57
2022/08/05 02:28:28;;;;;;;4.70;1.90;;;19.10;99.90;;;;;;4996772;28;20544;-57
2022/08/05 02:31:06;;;;;;;5.63;2.00;;;19.00;99.90;;;;;;4998773;28;20045;-58
2022/08/05 02:33:36;;;;;;;3.42;2.00;;;19.10;99.90;;;;;;4997893;28;20104;-59
2022/08/05 02:36:04;;;;;;;6.13;2.28;;;19.00;99.90;;;;;;4999061;28;20044;-58
2022/08/05 02:38:31;;;;;;;7.10;2.25;;;19.00;99.90;;;;;;4998605;28;20042;-58
2022/08/05 02:40:58;;;;;;;5.18;2.45;;;19.10;99.90;;;;;;4998376;28;20297;-59
2022/08/05 02:43:25;;;;;;;7.72;3.05;;;19.00;99.90;;;;;;4997721;28;20044;-58
2022/08/05 02:45:52;;;;;;;6.45;2.60;;;19.00;99.90;;;;;;4999190;28;20112;-58
2022/08/05 02:48:19;;;;;;;7.22;2.50;;;19.00;99.90;;;;;;4998230;28;20073;-58
2022/08/05 02:50:49;;;;;;;8.85;3.58;;;19.10;99.90;;;;;;4999322;28;20136;-57
2022/08/05 02:53:17;;;;;;;6.10;3.15;;;19.00;99.90;;;;;;4998602;28;20627;-58
2022/08/05 02:55:44;;;;;;;6.95;2.78;;;19.00;99.90;;;;;;4998272;28;20103;-57
2022/08/05 02:58:13;;;;;;;5.28;2.70;;;19.00;99.90;;;;;;4997528;28;20080;-58
2022/08/05 03:00:40;;;;;;;7.30;2.53;;;19.00;99.90;;;;;;4997703;28;20045;-58
2022/08/05 03:03:07;;;;;;;7.90;2.67;;;19.00;99.90;;;;;;4998629;28;20130;-58
2022/08/05 03:05:32;;;;;;;8.25;2.83;;;18.80;99.90;;;;;;4996857;28;20100;-58
2022/08/05 03:07:58;;;;;;;6.35;3.13;;;18.70;99.90;;;;;;4982996;28;20042;-57
2022/08/05 03:10:24;;;;;;;6.93;2.88;;;18.70;99.90;;;;;;4976929;28;20477;-58
2022/08/05 03:12:50;;;;;;;6.93;2.95;;;18.70;99.90;;;;;;4979180;28;20104;-58
2022/08/05 03:15:16;;;;;;;6.68;2.92;;;18.60;99.90;;;;;;4978715;28;20092;-57
2022/08/05 03:17:42;;;;;;;8.85;3.10;;;18.60;99.90;;;;;;4979501;28;20034;-58
2022/08/05 03:20:08;;;;;;;6.65;3.10;;;18.50;99.90;;;;;;4978107;28;20129;-57
2022/08/05 03:22:34;;;;;;;8.10;3.30;;;18.50;99.90;;;;;;4978862;28;20049;-58
2022/08/05 03:25:00;;;;;;;5.68;3.20;;;18.50;99.90;;;;;;4977834;28;20043;-58
2022/08/05 03:27:26;;;;;;;7.40;3.10;;;18.30;99.90;;;;;;4993726;28;20054;-58
2022/08/05 03:29:52;;;;;;;6.63;3.00;;;18.30;99.90;;;;;;4978094;28;20064;-58
2022/08/05 03:32:18;;;;;;;6.30;3.00;;;18.20;99.90;;;;;;4978829;28;20051;-57
2022/08/05 03:34:45;;;;;;;8.95;3.03;;;18.30;99.90;;;;;;4979118;28;20046;-57
2022/08/05 03:37:11;;;;;;;5.03;2.67;;;18.30;99.90;;;;;;4982728;28;20039;-57
2022/08/05 03:39:37;;;;;;;5.65;2.80;;;18.30;99.90;;;;;;4981315;28;20100;-58
2022/08/05 03:42:03;;;;;;;7.72;3.00;;;18.30;99.90;;;;;;4982755;28;20469;-58
2022/08/05 03:44:29;;;;;;;7.85;3.40;;;18.30;99.90;;;;;;4982287;28;20043;-58
2022/08/05 03:46:54;;;;;;;7.55;3.38;;;18.30;99.90;;;;;;4982768;28;20065;-58
2022/08/05 03:49:20;;;;;;;7.43;3.40;;;18.20;99.90;;;;;;4981767;28;20043;-57
2022/08/05 03:51:59;;;;;;;10.60;3.50;;;18.20;99.90;;;;;;4982834;28;20053;-57
2022/08/05 03:54:30;;;;;;;8.52;3.40;;;18.20;99.90;;;;;;4981300;28;20050;-58
2022/08/05 03:56:57;;;;;;;7.35;3.25;;;18.10;99.90;;;;;;4982512;28;20049;-58
2022/08/05 03:59:28;;;;;;;6.47;4.07;;;18.10;99.90;;;;;;4982007;28;20042;-58
2022/08/05 04:01:55;;;;;;;9.10;4.18;;;18.10;99.90;;;;;;4982556;28;20073;-57
2022/08/05 04:04:22;;;;;;;6.22;3.85;;;18.10;99.90;;;;;;4980912;28;20323;-59
2022/08/05 04:06:48;;;;;;;7.65;4.30;;;18.10;99.90;;;;;;4987559;28;20069;-58
2022/08/05 04:09:15;;;;;;;9.48;4.22;;;18.10;99.90;;;;;;4987078;28;20118;-57
2022/08/05 04:11:41;;;;;;;8.57;3.90;;;18.10;99.90;;;;;;4982453;28;20047;-58
2022/08/05 04:14:07;;;;;;;8.40;4.57;;;18.10;99.90;;;;;;4981264;28;20064;-57
2022/08/05 04:16:34;;;;;;;7.95;4.28;;;18.20;99.90;;;;;;4981943;28;20046;-57
2022/08/05 04:19:01;;;;;;;7.80;4.38;;;18.00;99.90;;;;;;4981884;28;20061;-57
2022/08/05 04:21:27;;;;;;;8.00;4.03;;;18.00;99.90;;;;;;4981466;28;20115;-58
2022/08/05 04:23:53;;;;;;;7.63;4.13;;;18.00;99.90;;;;;;4980489;28;20104;-58
2022/08/05 04:26:19;;;;;;;7.80;4.50;;;18.00;99.90;;;;;;4981593;28;20042;-57
2022/08/05 04:28:44;;;;;;;9.95;4.70;;;17.90;99.90;;;;;;4982606;28;20061;-57
2022/08/05 04:31:10;;;;;;;10.20;4.72;;;18.00;99.90;;;;;;4981657;28;20045;-57
2022/08/05 04:33:36;;;;;;;8.80;4.68;;;18.00;99.90;;;;;;4979407;28;20054;-57
2022/08/05 04:36:02;;;;;;;7.22;4.53;;;18.00;99.90;;;;;;4981692;28;20384;-58
2022/08/05 04:38:27;;;;;;;9.52;5.03;;;18.00;99.90;;;;;;4980731;28;20627;-58
2022/08/05 04:40:53;;;;;;;8.98;5.15;;;17.90;99.90;;;;;;4981587;28;20077;-58
2022/08/05 04:43:19;;;;;;;9.00;5.05;;;17.90;99.90;;;;;;4980771;28;20042;-58
2022/08/05 04:45:44;;;;;;;9.32;5.45;;;17.90;99.90;;;;;;4996632;28;20061;-58
2022/08/05 04:48:13;;;;;;;8.30;5.03;;;18.00;99.90;;;;;;4980437;28;20614;-59
2022/08/05 04:50:45;;;;;;;8.00;4.80;;;18.00;99.90;;;;;;4980642;28;20038;-58
2022/08/05 04:53:13;;;;;;;7.85;5.30;;;18.00;99.90;;;;;;4981640;28;20042;-57
2022/08/05 04:55:39;;;;;;;8.40;5.30;;;18.10;99.90;;;;;;4995525;28;20050;-58
2022/08/05 04:58:08;;;;;;;9.65;4.97;;;18.00;99.90;;;;;;4981301;28;20050;-58
2022/08/05 05:00:35;;;;;;;8.80;5.15;;;18.00;99.90;;;;;;4980285;28;20051;-58
2022/08/05 05:03:01;;;;;;;9.57;4.75;;;18.10;99.90;;;;;;4981321;28;20046;-57
2022/08/05 05:05:27;;;;;;;8.27;5.65;;;18.00;99.90;;;;;;4981081;28;20547;-58
2022/08/05 05:07:54;;;;;;;10.10;5.40;;;18.00;99.90;;;;;;4991387;28;20046;-57
2022/08/05 05:10:19;;;;;;;7.47;5.07;;;18.00;99.90;;;;;;4980438;28;20046;-57
2022/08/05 05:12:45;;;;;;;9.85;4.80;;;18.00;99.90;;;;;;4981214;28;20493;-58
2022/08/05 05:15:11;;;;;;;11.10;5.22;;;18.00;99.90;;;;;;4981137;28;20042;-57
2022/08/05 05:17:38;;;;;;;10.57;5.47;;;18.00;99.90;;;;;;4979984;28;20069;-59
2022/08/05 05:20:05;;;;;;;9.00;5.00;;;18.00;99.90;;;;;;4980891;28;20097;-58
2022/08/05 05:22:30;;;;;;;6.30;4.70;;;18.00;99.90;;;;;;4980482;28;20039;-58
2022/08/05 05:24:56;;;;;;;9.98;4.93;;;18.00;99.90;;;;;;4979007;28;20066;-58
2022/08/05 05:27:22;;;;;;;8.75;5.13;;;18.10;99.90;;;;;;4979555;28;20057;-58
2022/08/05 05:29:47;;;;;;;8.20;4.90;;;18.10;99.90;;;;;;4980826;28;20068;-58
2022/08/05 05:32:13;;;;;;;7.18;4.40;;;18.10;99.90;;;;;;4980790;28;20034;-57
2022/08/05 05:34:38;;;;;;;8.63;4.43;;;18.20;99.90;;;;;;4980268;28;20540;-58
2022/08/05 05:37:04;;;;;;;7.35;4.47;;;18.20;99.90;;;;;;4979745;28;20054;-58
2022/08/05 05:39:30;;;;;;;7.63;4.30;;;18.20;99.90;;;;;;4979688;28;20124;-58
2022/08/05 05:41:55;;;;;;;6.55;4.07;;;18.30;99.90;;;;;;4980671;28;20069;-56
2022/08/05 05:44:21;;;;;;;7.30;4.25;;;18.30;99.90;;;;;;4979987;28;20046;-58
2022/08/05 05:46:47;;;;;;;11.52;4.28;;;18.30;99.90;;;;;;4994691;28;20108;-57
2022/08/05 05:49:12;;;;;;;8.80;4.15;;;18.30;99.90;;;;;;4980586;28;20038;-58
2022/08/05 05:51:38;;;;;;;7.13;3.95;;;18.50;99.90;;;;;;4980130;28;20047;-58
2022/08/05 05:54:03;;;;;;;7.88;3.75;;;18.50;99.90;;;;;;4979571;28;20054;-58
2022/08/05 05:56:30;;;;;;;6.47;3.42;;;18.60;99.90;;;;;;4978971;28;20109;-58
2022/08/05 05:58:56;;;;;;;7.93;3.80;;;18.60;99.90;;;;;;4980115;28;20691;-57
2022/08/05 06:01:22;;;;;;;8.98;3.42;;;18.70;99.90;;;;;;4979546;28;20046;-58
2022/08/05 06:03:47;;;;;;;7.97;3.70;;;18.80;99.90;;;;;;4979915;28;20050;-58
2022/08/05 06:06:13;;;;;;;5.70;3.50;;;18.70;99.90;;;;;;4982016;28;20041;-57
2022/08/05 06:08:38;;;;;;;5.20;3.33;;;18.70;99.90;;;;;;4987492;28;20482;-58
2022/08/05 06:11:05;;;;;;;6.10;3.13;;;18.80;99.90;;;;;;4979819;28;20057;-58
2022/08/05 06:13:31;;;;;;;7.38;3.53;;;18.80;99.90;;;;;;4979583;28;20729;-57
2022/08/05 06:15:56;;;;;;;7.03;3.63;;;18.70;99.90;;;;;;4978784;28;20054;-57
2022/08/05 06:18:22;;;;;;;6.00;2.90;;;18.60;99.90;;;;;;4978025;28;20207;-57
2022/08/05 06:20:48;;;;;;;4.32;2.67;;;18.80;99.90;;;;;;4979774;28;20737;-57
2022/08/05 06:23:13;;;;;;;7.22;3.00;;;18.80;99.90;;;;;;4979313;28;20046;-57
2022/08/05 06:25:39;;;;;;;5.13;2.70;;;18.70;99.90;;;;;;4978771;28;20126;-57
2022/08/05 06:28:05;;;;;;;6.18;2.60;;;18.80;99.90;;;;;;4979653;28;20053;-57
2022/08/05 06:30:30;;;;;;;4.35;2.47;;;18.80;99.90;;;;;;4979185;28;20046;-57
2022/08/05 06:32:56;;;;;;;8.02;2.97;;;18.70;99.90;;;;;;4978503;28;20050;-57
2022/08/05 06:35:22;;;;;;;8.25;2.97;;;18.70;99.90;;;;;;4978527;28;20477;-57
2022/08/05 06:37:47;;;;;;;4.93;2.75;;;18.80;99.90;;;;;;4979732;28;20423;-57
2022/08/05 06:40:14;;;;;;;9.10;3.28;;;19.00;99.90;;;;;;4978731;28;20108;-57
2022/08/05 06:42:39;;;;;;;4.88;2.63;;;19.10;99.90;;;;;;4977802;28;20397;-57
2022/08/05 06:45:06;;;;;;;5.80;2.90;;;19.20;99.90;;;;;;4978202;28;20038;-57
2022/08/05 06:47:32;;;;;;;4.50;2.67;;;19.30;99.90;;;;;;4979011;28;20415;-58
2022/08/05 06:49:58;;;;;;;8.30;3.20;;;19.40;99.90;;;;;;4979283;28;20129;-57
2022/08/05 06:52:23;;;;;;;6.68;3.15;;;19.50;99.90;;;;;;4979145;28;20073;-57
2022/08/05 06:54:49;;;;;;;5.85;2.80;;;19.60;99.90;;;;;;4977774;28;20117;-58
2022/08/05 06:57:16;;;;;;;7.65;2.80;;;19.80;99.90;;;;;;4979223;28;20508;-58
2022/08/05 06:59:42;;;;;;;7.00;3.00;;;20.10;99.90;;;;;;4979324;28;20444;-56
2022/08/05 07:02:09;;;;;;;5.65;3.17;;;20.60;99.90;;;;;;4979031;28;20046;-57
2022/08/05 07:04:35;;;;;;;7.15;3.25;;;20.60;99.90;;;;;;4977859;28;20050;-57
2022/08/05 07:07:00;;;;;;;6.35;3.10;;;20.30;99.90;;;;;;4986709;28;20140;-57
2022/08/05 07:09:26;;;;;;;5.70;2.88;;;20.00;99.90;;;;;;4981572;28;20085;-48
2022/08/05 07:11:54;;;;;;;6.05;3.22;;;19.90;99.90;;;;;;4978969;28;20050;-57
2022/08/05 07:17:04;;;;;;;5.75;3.15;;;19.80;99.90;;;;;;4979187;28;20050;-57
2022/08/05 07:19:30;;;;;;;5.80;2.90;;;19.80;99.90;;;;;;4978461;28;20701;-57
2022/08/05 07:21:56;;;;;;;6.03;2.92;;;20.10;99.90;;;;;;4977972;28;20125;-56
2022/08/05 07:24:22;;;;;;;6.30;3.28;;;20.70;99.90;;;;;;4977562;28;20093;-57
2022/08/05 07:26:48;;;;;;;15.00;2.95;;;21.20;99.90;;;;;;4978836;28;20671;-57
2022/08/05 07:29:14;;;;;;;7.90;2.58;;;21.40;99.90;;;;;;4978782;28;20170;-55
2022/08/05 07:31:40;;;;;;;5.95;2.35;;;21.60;99.90;;;;;;4993408;28;20121;-57
2022/08/05 07:34:06;;;;;;;5.43;2.13;;;21.60;99.90;;;;;;4978915;28;20061;-57
2022/08/05 07:36:32;;;;;;;3.63;1.90;;;21.70;99.90;;;;;;4978194;28;20054;-57
2022/08/05 07:39:02;;;;;;;5.05;2.40;;;21.50;99.90;;;;;;4977726;28;20083;-57
2022/08/05 07:41:28;;;;;;;5.20;2.28;;;21.70;99.90;;;;;;4978347;28;20053;-57
2022/08/05 07:43:56;;;;;;;10.00;2.70;;;21.50;99.90;;;;;;4978945;28;20034;-56
2022/08/05 07:46:22;;;;;;;4.57;2.47;;;21.30;99.90;;;;;;5010865;28;20107;-57
2022/08/05 07:48:47;;;;;;;6.45;2.75;;;20.90;99.90;;;;;;4996984;28;20042;-57
2022/08/05 07:51:14;;;;;;;5.00;2.50;;;20.80;99.90;;;;;;5010141;28;20486;-57
2022/08/05 07:53:41;;;;;;;5.47;2.45;;;20.60;99.90;;;;;;5017554;28;20053;-57
2022/08/05 07:56:06;;;;;;;3.85;1.70;;;20.60;99.90;;;;;;5018370;28;20099;-57
2022/08/05 07:58:32;;;;;;;5.15;2.08;;;20.50;99.90;;;;;;5016469;28;20376;-57
2022/08/05 08:00:58;;;;;;;5.72;1.33;;;20.20;99.90;;;;;;5017125;28;20519;-56
2022/08/05 08:03:23;;;;;;;4.70;1.70;;;20.20;99.90;;;;;;5015375;28;20045;-57
2022/08/05 08:05:52;;;;;;;4.38;1.15;;;20.30;99.90;;;;;;5011562;28;20254;-57
2022/08/05 08:08:18;;;;;;;4.28;1.38;;;20.50;99.90;;;;;;4985278;28;20089;-56
2022/08/05 08:10:44;;;;;;;2.97;1.23;;;20.60;99.90;;;;;;4979147;28;20092;-57
2022/08/05 08:13:10;;;;;;;5.72;1.15;;;20.80;99.90;;;;;;4978247;28;20125;-58
2022/08/05 08:15:36;;;;;;;3.17;1.20;;;21.00;99.90;;;;;;4977957;28;20084;-57
2022/08/05 08:18:02;;;;;;;2.95;1.30;;;21.00;99.90;;;;;;4977155;28;20050;-57
2022/08/05 08:20:28;;;;;;;2.25;0.90;;;21.00;99.90;;;;;;4977846;28;20065;-57
2022/08/05 08:22:55;;;;;;;6.70;1.17;;;21.30;99.90;;;;;;4995502;28;20501;-56
2022/08/05 08:25:21;;;;;;;3.55;1.33;;;21.50;99.90;;;;;;4981803;28;20050;-56
2022/08/05 08:27:46;;;;;;;6.80;1.35;;;21.80;99.90;;;;;;4981073;28;20050;-57
2022/08/05 08:30:13;;;;;;;2.90;1.25;;;22.10;99.90;;;;;;4981906;28;20065;-57
2022/08/05 08:32:39;;;;;;;5.53;1.13;;;22.50;99.90;;;;;;4980193;28;20050;-56
2022/08/05 08:35:06;;;;;;;3.60;1.30;;;22.90;99.90;;;;;;4981908;28;20141;-57
2022/08/05 08:37:32;;;;;;;1.88;0.90;;;22.90;99.90;;;;;;4979314;28;20046;-57
2022/08/05 08:39:58;;;;;;;3.17;1.00;;;22.50;99.90;;;;;;4981161;28;20038;-57
2022/08/05 08:42:25;;;;;;;3.15;1.17;;;22.00;99.90;;;;;;4980252;28;20089;-57
2022/08/05 08:44:53;;;;;;;3.45;1.10;;;21.40;99.90;;;;;;4980725;28;20070;-58
2022/08/05 08:47:24;;;;;;;4.45;1.10;;;21.70;99.90;;;;;;4980727;28;20096;-57
2022/08/05 08:49:52;;;;;;;3.10;1.10;;;22.00;99.90;;;;;;4981277;28;20506;-57
2022/08/05 08:52:32;;;;;;;3.08;0.88;;;21.80;99.90;;;;;;4981045;28;20120;-57
2022/08/05 08:54:58;;;;;;;2.88;1.08;;;21.70;99.90;;;;;;4979603;28;20054;-57
2022/08/05 08:57:25;;;;;;;4.70;1.30;;;21.90;99.90;;;;;;4981194;28;20055;-57
2022/08/05 08:59:51;;;;;;;2.88;1.20;;;21.70;99.90;;;;;;4981507;28;20409;-58
2022/08/05 09:02:19;;;;;;;3.25;1.48;;;21.60;99.90;;;;;;4980017;28;20104;-56
2022/08/05 09:04:45;;;;;;;1.83;0.80;;;21.40;99.90;;;;;;4981323;28;20413;-56
2022/08/05 09:07:11;;;;;;;2.00;0.70;;;21.40;99.90;;;;;;4990126;28;20088;-57
2022/08/05 09:09:38;;;;;;;1.77;0.93;;;21.40;99.90;;;;;;4982442;28;20043;-57
2022/08/05 09:12:07;;;;;;;3.70;1.08;;;21.60;99.90;;;;;;4980358;28;20042;-56
2022/08/05 09:14:34;;;;;;;2.25;0.70;;;21.40;99.90;;;;;;4980917;28;20607;-57
2022/08/05 09:17:00;;;;;;;1.58;0.68;;;21.50;99.90;;;;;;4980863;28;20050;-57
2022/08/05 09:19:27;;;;;;;3.75;1.20;;;21.50;99.90;;;;;;4979961;28;20466;-58
2022/08/05 09:21:53;;;;;;;2.38;0.95;;;21.30;99.90;;;;;;4995930;28;20062;-58
2022/08/05 09:24:18;;;;;;;4.63;1.20;;;21.40;99.90;;;;;;4979599;28;20581;-57
2022/08/05 09:26:47;;;;;;;3.60;0.90;;;21.30;99.90;;;;;;4981110;28;20062;-58
2022/08/05 09:29:13;;;;;;;3.22;1.40;;;21.20;99.90;;;;;;4980080;28;20707;-57
2022/08/05 09:31:42;;;;;;;2.83;1.40;;;21.00;99.90;;;;;;4981078;28;20049;-58
2022/08/05 09:34:09;;;;;;;3.47;1.10;;;20.80;99.90;;;;;;4980424;28;20042;-57
2022/08/05 09:36:49;;;;;;;2.17;0.95;;;20.70;99.90;;;;;;4980759;28;20170;-57
2022/08/05 09:39:16;;;;;;;4.57;1.35;;;20.60;99.90;;;;;;4979952;28;20050;-57
2022/08/05 09:42:02;;;;;;;3.25;1.05;;;20.70;99.90;;;;;;4980609;28;20042;-57
2022/08/05 09:44:36;;;;;;;2.92;1.00;;;20.70;99.90;;;;;;4979323;28;20042;-58
2022/08/05 09:47:17;;;;;;;3.22;0.93;;;20.80;99.90;;;;;;4980353;28;20054;-60
2022/08/05 09:49:54;;;;;;;4.80;1.00;;;20.80;99.90;;;;;;4979821;28;20044;-57
2022/08/05 09:52:21;;;;;;;3.50;1.00;;;20.70;99.90;;;;;;4979781;28;20046;-59
2022/08/05 09:55:08;;;;;;;3.42;0.90;;;20.70;99.90;;;;;;4979795;28;20046;-57
2022/08/05 09:57:35;;;;;;;2.78;0.98;;;20.70;99.90;;;;;;4979838;28;20050;-57
2022/08/05 10:00:12;;;;;;;3.42;0.80;;;20.80;99.90;;;;;;4980012;28;20069;-58
2022/08/05 10:02:42;;;;;;;2.97;0.90;;;20.90;99.90;;;;;;4979210;28;20046;-57
2022/08/05 10:05:14;;;;;;;3.15;0.75;;;20.90;99.90;;;;;;4980232;28;20059;-58
2022/08/05 10:08:01;;;;;;;1.88;0.50;;;20.80;99.90;;;;;;4990390;28;20358;-57
2022/08/05 10:10:36;;;;;;;1.88;0.80;;;21.30;99.90;;;;;;4978387;28;20054;-58
2022/08/05 10:13:02;;;;;;;;;;;21.50;99.90;;;;;;4980434;28;20489;-53
2022/08/05 10:15:35;;;;;;;3.53;0.68;;;21.80;99.90;;;;;;4979271;28;19925;-57
2022/08/05 10:18:08;;;;;;;2.38;0.70;;;21.70;99.90;;;;;;4979840;28;20061;-57
2022/08/05 10:21:04;;;;;;;2.63;0.70;;;21.50;99.90;;;;;;4979575;28;20054;-58
2022/08/05 10:23:35;;;;;;;1.95;0.55;;;21.40;99.90;;;;;;4978701;28;20401;-58
2022/08/05 10:26:04;;;;;;;1.65;0.60;;;21.60;99.90;;;;;;4979974;28;20089;-59
2022/08/05 10:28:30;;;;;;;1.00;0.52;;;22.10;99.90;;;;;;4978430;28;20050;-59
2022/08/05 10:30:57;;;;;;;2.20;0.60;;;22.40;99.90;;;;;;4979689;28;20522;-56
2022/08/05 10:33:26;;;;;;;2.85;0.50;;;22.30;99.90;;;;;;4979424;28;20204;-59
2022/08/05 10:35:53;;;;;;;3.00;1.17;;;22.30;99.90;;;;;;4979499;28;20072;-59
2022/08/05 10:38:21;;;;;;;1.05;0.50;;;21.90;99.90;;;;;;4977566;28;20049;-58
2022/08/05 10:40:50;;;;;;;1.92;0.57;;;22.30;99.90;;;;;;4979037;28;20053;-58
2022/08/05 10:43:37;;;;;;;1.90;0.63;;;23.00;99.90;;;;;;4978725;28;20489;-57
2022/08/05 10:46:08;;;;;;;2.20;0.50;;;22.90;99.90;;;;;;4978387;28;20054;-58
2022/08/05 10:48:40;;;;;;;1.67;0.50;;;23.20;99.90;;;;;;4978951;28;20046;-58
2022/08/05 10:51:10;;;;;;;2.80;0.73;;;23.40;99.90;;;;;;4979022;28;20120;-58
2022/08/05 10:53:50;;;;;;;1.88;0.57;;;23.40;99.90;;;;;;4978055;28;20324;-58
2022/08/05 10:56:19;;;;;;;4.15;0.70;;;23.40;99.90;;;;;;4978539;28;20556;-57
2022/08/05 10:58:57;;;;;;;3.70;0.80;;;23.50;99.90;;;;;;4977350;28;20438;-58
2022/08/05 11:01:43;;;;;;;1.58;0.47;;;23.60;99.90;;;;;;4978344;28;20046;-57
2022/08/05 11:04:22;;;;;;;2.75;0.55;;;23.90;99.90;;;;;;4977973;28;20125;-57
2022/08/05 11:06:57;;;;;;;1.75;0.47;;;23.40;99.90;;;;;;4985045;28;20042;-58
2022/08/05 11:09:27;;;;;;;2.20;0.55;;;23.30;99.90;;;;;;4981337;28;20401;-58
2022/08/05 11:11:54;;;;;;;1.05;0.38;;;23.40;99.90;;;;;;4993546;28;20042;-57
2022/08/05 11:14:36;;;;;;;2.42;0.57;;;23.80;99.90;;;;;;4978114;28;20047;-58
2022/08/05 11:17:26;;;;;;;2.47;0.50;;;23.60;99.90;;;;;;4978386;28;20109;-58
2022/08/05 11:19:57;;;;;;;1.17;0.47;;;23.70;99.90;;;;;;4978607;28;20046;-58
2022/08/05 11:22:42;;;;;;;1.75;0.40;;;23.30;99.90;;;;;;4977415;28;20084;-59
2022/08/05 11:25:31;;;;;;;0.68;0.30;;;23.50;99.90;;;;;;4978776;28;20047;-58
2022/08/05 11:28:16;;;;;;;3.80;0.52;;;23.30;99.90;;;;;;4978053;28;20129;-59
2022/08/05 11:30:57;;;;;;;2.20;0.50;;;23.90;99.90;;;;;;4979035;28;20038;-59
2022/08/05 11:33:44;;;;;;;1.55;0.35;;;23.80;99.90;;;;;;4977766;28;20062;-59
2022/08/05 11:36:13;;;;;;;1.65;0.40;;;23.90;99.90;;;;;;4979031;28;20077;-63
2022/08/05 11:38:42;;;;;;;2.13;0.50;;;23.60;99.90;;;;;;4976381;28;20051;-61
2022/08/05 11:41:22;;;;;;;1.25;0.40;;;23.60;99.90;;;;;;4978298;28;20042;-59
2022/08/05 11:43:56;;;;;;;2.42;0.38;;;23.80;99.90;;;;;;4978770;28;20192;-60
2022/08/05 11:46:29;;;;;;;1.92;0.50;;;24.40;99.90;;;;;;4977332;28;20735;-59
2022/08/05 11:48:56;;;;;;;1.60;0.50;;;23.90;99.90;;;;;;4978259;28;20046;-59
2022/08/05 11:51:22;;;;;;;1.83;0.45;;;23.60;99.90;;;;;;4977793;28;20034;-60
2022/08/05 11:53:48;;;;;;;2.38;0.40;;;23.70;99.90;;;;;;4976887;28;20129;-59
2022/08/05 11:56:14;;;;;;;0.73;0.30;;;23.20;99.90;;;;;;4979278;28;20179;-60
2022/08/05 11:58:42;;;;;;;1.73;0.30;;;23.30;99.90;;;;;;4982099;28;20038;-59
2022/08/05 12:01:19;;;;;;;2.83;0.55;;;23.30;99.90;;;;;;4982367;28;20046;-59
2022/08/05 12:03:54;;;;;;;2.92;0.30;;;23.80;99.90;;;;;;4982270;28;20066;-59
2022/08/05 12:06:27;;;;;;;1.00;0.22;;;23.50;99.90;;;;;;4984136;28;20074;-58
2022/08/05 12:08:56;;;;;;;5.03;0.47;;;23.30;99.90;;;;;;4980713;28;20084;-60
2022/08/05 12:11:24;;;;;;;3.35;0.30;;;22.90;99.90;;;;;;4983710;28;20304;-60
2022/08/05 12:14:05;;;;;;;1.95;0.30;;;22.90;99.90;;;;;;4998814;28;20050;-61
2022/08/05 12:16:35;;;;;;;1.45;0.52;;;22.80;99.90;;;;;;5000362;28;20463;-60
2022/08/05 12:19:02;;;;;;;3.80;0.50;;;22.60;99.90;;;;;;4981910;28;20573;-60
2022/08/05 12:21:34;;;;;;;1.73;0.50;;;22.60;99.90;;;;;;4981372;28;20042;-61
2022/08/05 12:24:06;;;;;;;2.25;0.50;;;22.80;99.90;;;;;;4980546;28;20045;-60
2022/08/05 12:26:38;;;;;;;1.65;0.40;;;22.60;99.90;;;;;;4981371;28;20130;-60
2022/08/05 12:29:06;;;;;;;0.93;0.28;;;22.70;99.90;;;;;;4984669;28;20045;-61
2022/08/05 12:31:33;;;;;;;2.63;0.47;;;22.20;99.90;;;;;;5001022;28;20085;-59
2022/08/05 12:34:05;;;;;;;1.23;0.35;;;23.00;99.90;;;;;;5000521;28;20316;-59
2022/08/05 12:36:31;;;;;;;4.45;0.50;;;23.10;99.90;;;;;;4998649;28;20115;-60
2022/08/05 12:38:58;;;;;;;6.95;0.68;;;23.00;99.90;;;;;;4998475;28;20046;-60
2022/08/05 12:41:32;;;;;;;3.13;0.40;;;22.70;99.90;;;;;;4999385;28;20073;-58
2022/08/05 12:44:01;;;;;;;4.00;0.32;;;23.20;99.90;;;;;;5008070;28;20045;-64
2022/08/05 12:46:31;;;;;;;0.88;0.20;;;22.90;99.90;;;;;;5020164;28;20715;-65
2022/08/05 12:49:09;;;;;;;1.95;0.40;;;23.00;99.90;;;;;;5019507;28;20156;-60
2022/08/05 12:51:51;;;;;;;5.03;0.70;;;23.10;99.90;;;;;;5020008;28;20037;-60
2022/08/05 12:54:28;;;;;;;6.53;0.60;;;23.10;99.90;;;;;;5018068;28;20056;-58
2022/08/05 12:57:02;;;;;;;2.08;0.40;;;22.80;99.90;;;;;;5019948;28;20223;-61
2022/08/05 12:59:29;;;;;;;;;;;22.50;99.90;;;;;;5019903;28;20552;-60